sensor_id;sensor_type;location;lat;lon;timestamp;P1;durP1;ratioP1;P2;durP2;ratioP2
67867;SDS011;54672;46.096;14.470;2022-09-09T00:06:50;29.25;;;13.27;;
67867;SDS011;54672;46.096;14.470;2022-09-09T00:09:25;34.65;;;15.38;;
67867;SDS011;54672;46.096;14.470;2022-09-09T00:12:12;34.55;;;14.27;;
67867;SDS011;54672;46.096;14.470;2022-09-09T00:14:51;33.28;;;14.70;;
67867;SDS011;54672;46.096;14.470;2022-09-09T00:20:38;38.03;;;15.45;;
67867;SDS011;54672;46.096;14.470;2022-09-09T00:23:44;37.53;;;16.38;;
67867;SDS011;54672;46.096;14.470;2022-09-09T00:26:16;40.25;;;16.33;;
67867;SDS011;54672;46.096;14.470;2022-09-09T00:29:05;51.47;;;17.63;;
67867;SDS011;54672;46.096;14.470;2022-09-09T00:31:42;52.45;;;19.38;;
67867;SDS011;54672;46.096;14.470;2022-09-09T00:34:18;65.50;;;21.17;;
67867;SDS011;54672;46.096;14.470;2022-09-09T00:36:47;66.20;;;19.88;;
67867;SDS011;54672;46.096;14.470;2022-09-09T00:39:27;69.78;;;22.90;;
67867;SDS011;54672;46.096;14.470;2022-09-09T00:58:13;76.13;;;23.48;;
67867;SDS011;54672;46.096;14.470;2022-09-09T01:05:55;75.70;;;24.30;;
67867;SDS011;54672;46.096;14.470;2022-09-09T01:16:57;58.85;;;21.55;;
67867;SDS011;54672;46.096;14.470;2022-09-09T01:19:40;65.47;;;21.92;;
67867;SDS011;54672;46.096;14.470;2022-09-09T01:27:46;69.75;;;22.05;;
67867;SDS011;54672;46.096;14.470;2022-09-09T01:30:15;69.30;;;22.58;;
67867;SDS011;54672;46.096;14.470;2022-09-09T01:32:46;69.93;;;22.58;;
67867;SDS011;54672;46.096;14.470;2022-09-09T01:38:02;75.65;;;23.55;;
67867;SDS011;54672;46.096;14.470;2022-09-09T01:40:28;66.38;;;23.10;;
67867;SDS011;54672;46.096;14.470;2022-09-09T01:42:53;61.10;;;21.65;;
67867;SDS011;54672;46.096;14.470;2022-09-09T01:45:19;55.13;;;19.65;;
67867;SDS011;54672;46.096;14.470;2022-09-09T01:47:46;57.17;;;19.77;;
67867;SDS011;54672;46.096;14.470;2022-09-09T01:50:12;53.25;;;19.70;;
67867;SDS011;54672;46.096;14.470;2022-09-09T01:52:40;46.30;;;17.65;;
67867;SDS011;54672;46.096;14.470;2022-09-09T01:55:07;45.17;;;17.70;;
67867;SDS011;54672;46.096;14.470;2022-09-09T01:57:34;42.13;;;17.15;;
67867;SDS011;54672;46.096;14.470;2022-09-09T02:00:13;42.28;;;16.35;;
67867;SDS011;54672;46.096;14.470;2022-09-09T02:02:54;39.45;;;16.52;;
67867;SDS011;54672;46.096;14.470;2022-09-09T02:08:03;35.47;;;15.48;;
67867;SDS011;54672;46.096;14.470;2022-09-09T02:13:20;39.70;;;16.42;;
67867;SDS011;54672;46.096;14.470;2022-09-09T02:15:51;35.80;;;16.02;;
67867;SDS011;54672;46.096;14.470;2022-09-09T02:18:18;33.33;;;15.20;;
67867;SDS011;54672;46.096;14.470;2022-09-09T02:20:51;38.22;;;16.17;;
67867;SDS011;54672;46.096;14.470;2022-09-09T02:23:17;36.28;;;15.32;;
67867;SDS011;54672;46.096;14.470;2022-09-09T02:25:44;38.03;;;16.40;;
67867;SDS011;54672;46.096;14.470;2022-09-09T02:28:11;37.47;;;15.82;;
67867;SDS011;54672;46.096;14.470;2022-09-09T02:30:39;36.00;;;17.00;;
67867;SDS011;54672;46.096;14.470;2022-09-09T02:33:06;41.03;;;16.42;;
67867;SDS011;54672;46.096;14.470;2022-09-09T02:35:35;33.83;;;15.60;;
67867;SDS011;54672;46.096;14.470;2022-09-09T02:38:05;34.00;;;14.77;;
67867;SDS011;54672;46.096;14.470;2022-09-09T02:40:35;37.05;;;16.30;;
67867;SDS011;54672;46.096;14.470;2022-09-09T02:43:00;31.70;;;15.73;;
67867;SDS011;54672;46.096;14.470;2022-09-09T02:45:29;37.15;;;15.50;;
67867;SDS011;54672;46.096;14.470;2022-09-09T02:50:40;37.05;;;16.13;;
67867;SDS011;54672;46.096;14.470;2022-09-09T02:53:20;37.35;;;15.43;;
67867;SDS011;54672;46.096;14.470;2022-09-09T02:56:02;43.05;;;16.15;;
67867;SDS011;54672;46.096;14.470;2022-09-09T02:58:30;36.22;;;15.35;;
67867;SDS011;54672;46.096;14.470;2022-09-09T03:00:57;38.92;;;17.00;;
67867;SDS011;54672;46.096;14.470;2022-09-09T03:03:23;39.38;;;16.65;;
67867;SDS011;54672;46.096;14.470;2022-09-09T03:05:49;39.90;;;16.92;;
67867;SDS011;54672;46.096;14.470;2022-09-09T03:08:15;41.15;;;16.13;;
67867;SDS011;54672;46.096;14.470;2022-09-09T03:10:40;40.83;;;15.57;;
67867;SDS011;54672;46.096;14.470;2022-09-09T03:13:06;36.05;;;15.90;;
67867;SDS011;54672;46.096;14.470;2022-09-09T03:15:32;39.50;;;16.00;;
67867;SDS011;54672;46.096;14.470;2022-09-09T03:17:58;40.30;;;16.75;;
67867;SDS011;54672;46.096;14.470;2022-09-09T03:20:24;39.53;;;16.27;;
67867;SDS011;54672;46.096;14.470;2022-09-09T03:22:51;37.28;;;15.00;;
67867;SDS011;54672;46.096;14.470;2022-09-09T03:25:17;40.90;;;16.30;;
67867;SDS011;54672;46.096;14.470;2022-09-09T03:27:43;37.70;;;15.27;;
67867;SDS011;54672;46.096;14.470;2022-09-09T03:30:08;37.30;;;15.50;;
67867;SDS011;54672;46.096;14.470;2022-09-09T03:32:34;32.08;;;14.10;;
67867;SDS011;54672;46.096;14.470;2022-09-09T03:34:59;32.10;;;14.52;;
67867;SDS011;54672;46.096;14.470;2022-09-09T03:37:25;34.92;;;14.73;;
67867;SDS011;54672;46.096;14.470;2022-09-09T03:39:50;33.47;;;12.98;;
67867;SDS011;54672;46.096;14.470;2022-09-09T03:42:16;30.15;;;12.40;;
67867;SDS011;54672;46.096;14.470;2022-09-09T03:44:44;33.42;;;13.23;;
67867;SDS011;54672;46.096;14.470;2022-09-09T03:47:18;27.50;;;13.30;;
67867;SDS011;54672;46.096;14.470;2022-09-09T03:49:45;27.08;;;12.02;;
67867;SDS011;54672;46.096;14.470;2022-09-09T03:52:10;23.25;;;11.90;;
67867;SDS011;54672;46.096;14.470;2022-09-09T03:54:36;324.33;;;48.75;;
67867;SDS011;54672;46.096;14.470;2022-09-09T03:57:02;30.00;;;12.75;;
67867;SDS011;54672;46.096;14.470;2022-09-09T03:59:29;31.27;;;12.18;;
67867;SDS011;54672;46.096;14.470;2022-09-09T04:01:55;31.02;;;11.82;;
67867;SDS011;54672;46.096;14.470;2022-09-09T04:04:22;27.95;;;11.60;;
67867;SDS011;54672;46.096;14.470;2022-09-09T04:06:47;23.58;;;11.35;;
67867;SDS011;54672;46.096;14.470;2022-09-09T04:09:13;26.90;;;12.30;;
67867;SDS011;54672;46.096;14.470;2022-09-09T04:11:39;27.08;;;11.52;;
67867;SDS011;54672;46.096;14.470;2022-09-09T04:14:04;34.00;;;12.70;;
67867;SDS011;54672;46.096;14.470;2022-09-09T04:16:31;27.98;;;13.27;;
67867;SDS011;54672;46.096;14.470;2022-09-09T04:18:57;26.67;;;12.18;;
67867;SDS011;54672;46.096;14.470;2022-09-09T04:21:24;29.92;;;12.65;;
67867;SDS011;54672;46.096;14.470;2022-09-09T04:23:50;26.83;;;11.93;;
67867;SDS011;54672;46.096;14.470;2022-09-09T04:26:16;25.20;;;12.57;;
67867;SDS011;54672;46.096;14.470;2022-09-09T04:28:42;24.58;;;11.70;;
67867;SDS011;54672;46.096;14.470;2022-09-09T04:31:09;31.67;;;12.48;;
67867;SDS011;54672;46.096;14.470;2022-09-09T04:33:39;23.52;;;10.63;;
67867;SDS011;54672;46.096;14.470;2022-09-09T04:36:05;22.85;;;10.38;;
67867;SDS011;54672;46.096;14.470;2022-09-09T04:38:31;24.77;;;11.57;;
67867;SDS011;54672;46.096;14.470;2022-09-09T04:40:56;20.58;;;9.45;;
67867;SDS011;54672;46.096;14.470;2022-09-09T04:43:22;18.88;;;9.35;;
67867;SDS011;54672;46.096;14.470;2022-09-09T04:45:48;16.13;;;8.02;;
67867;SDS011;54672;46.096;14.470;2022-09-09T04:48:14;16.17;;;8.63;;
67867;SDS011;54672;46.096;14.470;2022-09-09T04:50:40;16.67;;;8.63;;
67867;SDS011;54672;46.096;14.470;2022-09-09T04:53:06;14.43;;;7.80;;
67867;SDS011;54672;46.096;14.470;2022-09-09T04:55:32;15.75;;;7.70;;
67867;SDS011;54672;46.096;14.470;2022-09-09T04:58:02;15.10;;;7.40;;
67867;SDS011;54672;46.096;14.470;2022-09-09T05:00:29;12.65;;;6.85;;
67867;SDS011;54672;46.096;14.470;2022-09-09T05:02:54;11.90;;;6.93;;
67867;SDS011;54672;46.096;14.470;2022-09-09T05:05:19;11.43;;;6.20;;
67867;SDS011;54672;46.096;14.470;2022-09-09T05:07:45;11.13;;;5.82;;
67867;SDS011;54672;46.096;14.470;2022-09-09T05:10:12;12.60;;;6.68;;
67867;SDS011;54672;46.096;14.470;2022-09-09T05:12:41;12.38;;;6.78;;
67867;SDS011;54672;46.096;14.470;2022-09-09T05:15:06;9.85;;;5.90;;
67867;SDS011;54672;46.096;14.470;2022-09-09T05:17:32;9.95;;;5.57;;
67867;SDS011;54672;46.096;14.470;2022-09-09T05:19:58;7.53;;;5.07;;
67867;SDS011;54672;46.096;14.470;2022-09-09T05:22:24;7.40;;;4.13;;
67867;SDS011;54672;46.096;14.470;2022-09-09T05:24:49;6.85;;;4.32;;
67867;SDS011;54672;46.096;14.470;2022-09-09T05:27:18;6.70;;;3.83;;
67867;SDS011;54672;46.096;14.470;2022-09-09T05:29:44;8.80;;;4.00;;
67867;SDS011;54672;46.096;14.470;2022-09-09T05:32:10;6.85;;;4.45;;
67867;SDS011;54672;46.096;14.470;2022-09-09T05:34:36;6.82;;;3.55;;
67867;SDS011;54672;46.096;14.470;2022-09-09T05:37:02;5.35;;;4.00;;
67867;SDS011;54672;46.096;14.470;2022-09-09T05:39:29;5.68;;;4.00;;
67867;SDS011;54672;46.096;14.470;2022-09-09T05:41:54;11.65;;;3.90;;
67867;SDS011;54672;46.096;14.470;2022-09-09T05:44:20;5.75;;;3.60;;
67867;SDS011;54672;46.096;14.470;2022-09-09T05:46:45;5.10;;;3.80;;
67867;SDS011;54672;46.096;14.470;2022-09-09T05:49:11;6.25;;;3.35;;
67867;SDS011;54672;46.096;14.470;2022-09-09T05:51:36;8.68;;;3.80;;
67867;SDS011;54672;46.096;14.470;2022-09-09T05:54:02;6.90;;;3.75;;
67867;SDS011;54672;46.096;14.470;2022-09-09T05:56:28;4.45;;;3.25;;
67867;SDS011;54672;46.096;14.470;2022-09-09T05:58:54;7.00;;;3.88;;
67867;SDS011;54672;46.096;14.470;2022-09-09T06:01:24;4.38;;;2.78;;
67867;SDS011;54672;46.096;14.470;2022-09-09T06:03:54;7.30;;;3.30;;
67867;SDS011;54672;46.096;14.470;2022-09-09T06:06:20;3.85;;;2.83;;
67867;SDS011;54672;46.096;14.470;2022-09-09T06:08:48;5.70;;;3.08;;
67867;SDS011;54672;46.096;14.470;2022-09-09T06:11:24;6.20;;;2.83;;
67867;SDS011;54672;46.096;14.470;2022-09-09T06:13:56;5.35;;;3.22;;
67867;SDS011;54672;46.096;14.470;2022-09-09T06:16:23;5.97;;;3.22;;
67867;SDS011;54672;46.096;14.470;2022-09-09T06:18:49;6.47;;;3.90;;
67867;SDS011;54672;46.096;14.470;2022-09-09T06:21:17;5.60;;;2.80;;
67867;SDS011;54672;46.096;14.470;2022-09-09T06:23:42;5.43;;;3.35;;
67867;SDS011;54672;46.096;14.470;2022-09-09T06:26:13;7.47;;;3.25;;
67867;SDS011;54672;46.096;14.470;2022-09-09T06:28:42;5.72;;;2.83;;
67867;SDS011;54672;46.096;14.470;2022-09-09T06:31:08;4.93;;;2.28;;
67867;SDS011;54672;46.096;14.470;2022-09-09T06:33:36;4.90;;;2.90;;
67867;SDS011;54672;46.096;14.470;2022-09-09T06:36:04;5.68;;;3.10;;
67867;SDS011;54672;46.096;14.470;2022-09-09T06:38:30;5.38;;;3.45;;
67867;SDS011;54672;46.096;14.470;2022-09-09T06:40:57;7.05;;;2.97;;
67867;SDS011;54672;46.096;14.470;2022-09-09T06:43:26;4.95;;;2.90;;
67867;SDS011;54672;46.096;14.470;2022-09-09T06:45:59;4.63;;;2.70;;
67867;SDS011;54672;46.096;14.470;2022-09-09T06:48:27;4.53;;;2.58;;
67867;SDS011;54672;46.096;14.470;2022-09-09T06:53:38;67.93;;;7.30;;
67867;SDS011;54672;46.096;14.470;2022-09-09T06:58:42;7.57;;;3.10;;
67867;SDS011;54672;46.096;14.470;2022-09-09T07:01:12;5.50;;;2.72;;
67867;SDS011;54672;46.096;14.470;2022-09-09T07:03:39;6.68;;;3.10;;
67867;SDS011;54672;46.096;14.470;2022-09-09T07:06:05;6.13;;;2.80;;
67867;SDS011;54672;46.096;14.470;2022-09-09T07:08:32;4.63;;;2.60;;
67867;SDS011;54672;46.096;14.470;2022-09-09T07:11:01;5.80;;;3.25;;
67867;SDS011;54672;46.096;14.470;2022-09-09T07:13:30;4.45;;;2.78;;
67867;SDS011;54672;46.096;14.470;2022-09-09T07:16:18;5.15;;;3.13;;
67867;SDS011;54672;46.096;14.470;2022-09-09T07:18:43;4.57;;;3.28;;
67867;SDS011;54672;46.096;14.470;2022-09-09T07:21:09;6.75;;;3.22;;
67867;SDS011;54672;46.096;14.470;2022-09-09T07:23:39;4.32;;;2.83;;
67867;SDS011;54672;46.096;14.470;2022-09-09T07:26:09;7.63;;;3.13;;
67867;SDS011;54672;46.096;14.470;2022-09-09T07:28:39;5.90;;;2.90;;
67867;SDS011;54672;46.096;14.470;2022-09-09T07:31:06;4.72;;;2.50;;
67867;SDS011;54672;46.096;14.470;2022-09-09T07:33:33;4.88;;;2.35;;
67867;SDS011;54672;46.096;14.470;2022-09-09T07:36:04;5.50;;;2.72;;
67867;SDS011;54672;46.096;14.470;2022-09-09T07:38:46;248.50;;;35.20;;
67867;SDS011;54672;46.096;14.470;2022-09-09T07:41:18;4.47;;;2.67;;
67867;SDS011;54672;46.096;14.470;2022-09-09T07:44:03;4.55;;;2.42;;
67867;SDS011;54672;46.096;14.470;2022-09-09T07:46:33;75.75;;;10.35;;
67867;SDS011;54672;46.096;14.470;2022-09-09T07:48:59;14.05;;;1.83;;
67867;SDS011;54672;46.096;14.470;2022-09-09T07:51:27;3.47;;;2.40;;
67867;SDS011;54672;46.096;14.470;2022-09-09T07:54:02;2.58;;;1.80;;
67867;SDS011;54672;46.096;14.470;2022-09-09T07:56:29;3.40;;;2.13;;
67867;SDS011;54672;46.096;14.470;2022-09-09T07:58:56;5.95;;;2.10;;
67867;SDS011;54672;46.096;14.470;2022-09-09T08:01:27;4.70;;;2.10;;
67867;SDS011;54672;46.096;14.470;2022-09-09T08:03:56;3.40;;;2.25;;
67867;SDS011;54672;46.096;14.470;2022-09-09T08:06:26;6.85;;;2.72;;
67867;SDS011;54672;46.096;14.470;2022-09-09T08:08:53;6.05;;;2.55;;
67867;SDS011;54672;46.096;14.470;2022-09-09T08:11:20;5.22;;;2.70;;
67867;SDS011;54672;46.096;14.470;2022-09-09T08:13:48;4.70;;;2.53;;
67867;SDS011;54672;46.096;14.470;2022-09-09T08:16:16;4.30;;;3.00;;
67867;SDS011;54672;46.096;14.470;2022-09-09T08:18:43;4.57;;;2.72;;
67867;SDS011;54672;46.096;14.470;2022-09-09T08:21:13;38.42;;;5.90;;
67867;SDS011;54672;46.096;14.470;2022-09-09T08:26:12;4.10;;;2.50;;
67867;SDS011;54672;46.096;14.470;2022-09-09T08:28:39;5.15;;;2.60;;
67867;SDS011;54672;46.096;14.470;2022-09-09T08:31:06;5.68;;;2.92;;
67867;SDS011;54672;46.096;14.470;2022-09-09T08:33:33;3.05;;;2.45;;
67867;SDS011;54672;46.096;14.470;2022-09-09T08:35:58;3.85;;;2.17;;
67867;SDS011;54672;46.096;14.470;2022-09-09T08:38:24;3.30;;;1.80;;
67867;SDS011;54672;46.096;14.470;2022-09-09T08:40:49;4.00;;;3.38;;
67867;SDS011;54672;46.096;14.470;2022-09-09T08:43:25;3.10;;;1.90;;
67867;SDS011;54672;46.096;14.470;2022-09-09T08:45:59;7.35;;;1.80;;
67867;SDS011;54672;46.096;14.470;2022-09-09T08:51:17;3.17;;;1.90;;
67867;SDS011;54672;46.096;14.470;2022-09-09T08:53:44;4.25;;;2.05;;
67867;SDS011;54672;46.096;14.470;2022-09-09T08:56:16;3.90;;;2.10;;
67867;SDS011;54672;46.096;14.470;2022-09-09T08:58:48;2.85;;;1.80;;
67867;SDS011;54672;46.096;14.470;2022-09-09T09:07:11;4.70;;;2.08;;
67867;SDS011;54672;46.096;14.470;2022-09-09T09:12:48;6.22;;;2.58;;
67867;SDS011;54672;46.096;14.470;2022-09-09T09:15:16;3.03;;;2.13;;
67867;SDS011;54672;46.096;14.470;2022-09-09T09:17:48;5.22;;;2.45;;
67867;SDS011;54672;46.096;14.470;2022-09-09T09:20:15;3.40;;;2.40;;
67867;SDS011;54672;46.096;14.470;2022-09-09T09:22:49;3.47;;;2.15;;
67867;SDS011;54672;46.096;14.470;2022-09-09T09:25:18;4.13;;;2.10;;
67867;SDS011;54672;46.096;14.470;2022-09-09T09:27:59;4.35;;;2.30;;
67867;SDS011;54672;46.096;14.470;2022-09-09T09:30:28;5.03;;;2.20;;
67867;SDS011;54672;46.096;14.470;2022-09-09T09:33:05;3.35;;;2.20;;
67867;SDS011;54672;46.096;14.470;2022-09-09T09:35:39;3.83;;;2.35;;
67867;SDS011;54672;46.096;14.470;2022-09-09T09:38:39;3.28;;;2.20;;
67867;SDS011;54672;46.096;14.470;2022-09-09T09:43:28;3.35;;;2.40;;
67867;SDS011;54672;46.096;14.470;2022-09-09T09:45:55;2.60;;;1.80;;
67867;SDS011;54672;46.096;14.470;2022-09-09T09:48:23;3.50;;;1.80;;
67867;SDS011;54672;46.096;14.470;2022-09-09T09:50:56;4.75;;;2.20;;
67867;SDS011;54672;46.096;14.470;2022-09-09T09:56:11;3.88;;;2.20;;
67867;SDS011;54672;46.096;14.470;2022-09-09T09:58:48;2.97;;;1.95;;
67867;SDS011;54672;46.096;14.470;2022-09-09T10:04:00;2.42;;;1.50;;
67867;SDS011;54672;46.096;14.470;2022-09-09T10:06:37;4.43;;;1.73;;
67867;SDS011;54672;46.096;14.470;2022-09-09T10:09:03;3.53;;;2.00;;
67867;SDS011;54672;46.096;14.470;2022-09-09T10:19:38;2.45;;;1.90;;
67867;SDS011;54672;46.096;14.470;2022-09-09T10:22:28;3.78;;;1.90;;
67867;SDS011;54672;46.096;14.470;2022-09-09T10:25:09;3.33;;;2.05;;
67867;SDS011;54672;46.096;14.470;2022-09-09T10:35:53;5.53;;;2.20;;
67867;SDS011;54672;46.096;14.470;2022-09-09T10:38:41;3.72;;;2.13;;
67867;SDS011;54672;46.096;14.470;2022-09-09T10:41:54;4.00;;;2.10;;
67867;SDS011;54672;46.096;14.470;2022-09-09T10:44:12;3.47;;;2.25;;
67867;SDS011;54672;46.096;14.470;2022-09-09T10:52:38;3.83;;;2.30;;
67867;SDS011;54672;46.096;14.470;2022-09-09T10:55:10;8.52;;;2.60;;
67867;SDS011;54672;46.096;14.470;2022-09-09T10:57:50;3.88;;;2.60;;
67867;SDS011;54672;46.096;14.470;2022-09-09T11:00:21;4.53;;;2.90;;
67867;SDS011;54672;46.096;14.470;2022-09-09T11:02:52;7.50;;;2.97;;
67867;SDS011;54672;46.096;14.470;2022-09-09T11:05:24;4.43;;;2.65;;
67867;SDS011;54672;46.096;14.470;2022-09-09T11:10:34;7.07;;;2.95;;
67867;SDS011;54672;46.096;14.470;2022-09-09T11:13:05;8.70;;;3.50;;
67867;SDS011;54672;46.096;14.470;2022-09-09T11:15:40;8.60;;;3.58;;
67867;SDS011;54672;46.096;14.470;2022-09-09T11:20:44;8.65;;;3.50;;
67867;SDS011;54672;46.096;14.470;2022-09-09T11:23:17;7.20;;;3.70;;
67867;SDS011;54672;46.096;14.470;2022-09-09T11:25:56;7.10;;;3.63;;
67867;SDS011;54672;46.096;14.470;2022-09-09T11:36:56;6.40;;;3.40;;
67867;SDS011;54672;46.096;14.470;2022-09-09T11:42:35;5.53;;;3.28;;
67867;SDS011;54672;46.096;14.470;2022-09-09T11:44:53;5.70;;;3.10;;
67867;SDS011;54672;46.096;14.470;2022-09-09T11:47:24;5.05;;;2.60;;
67867;SDS011;54672;46.096;14.470;2022-09-09T11:52:41;5.50;;;2.80;;
67867;SDS011;54672;46.096;14.470;2022-09-09T11:55:33;5.15;;;2.80;;
67867;SDS011;54672;46.096;14.470;2022-09-09T11:58:02;4.65;;;2.80;;
67867;SDS011;54672;46.096;14.470;2022-09-09T12:00:35;5.05;;;2.85;;
67867;SDS011;54672;46.096;14.470;2022-09-09T12:03:05;5.80;;;3.40;;
67867;SDS011;54672;46.096;14.470;2022-09-09T12:05:38;6.47;;;3.55;;
67867;SDS011;54672;46.096;14.470;2022-09-09T12:08:09;6.68;;;3.85;;
67867;SDS011;54672;46.096;14.470;2022-09-09T12:10:37;5.75;;;3.53;;
67867;SDS011;54672;46.096;14.470;2022-09-09T12:13:15;5.38;;;3.40;;
67867;SDS011;54672;46.096;14.470;2022-09-09T12:15:49;4.55;;;3.05;;
67867;SDS011;54672;46.096;14.470;2022-09-09T12:18:37;6.32;;;3.40;;
67867;SDS011;54672;46.096;14.470;2022-09-09T12:23:52;5.68;;;3.17;;
67867;SDS011;54672;46.096;14.470;2022-09-09T12:26:43;7.18;;;3.50;;
67867;SDS011;54672;46.096;14.470;2022-09-09T12:36:42;4.97;;;3.33;;
67867;SDS011;54672;46.096;14.470;2022-09-09T12:41:51;6.15;;;3.60;;
67867;SDS011;54672;46.096;14.470;2022-09-09T12:44:22;6.35;;;4.03;;
67867;SDS011;54672;46.096;14.470;2022-09-09T12:46:48;6.72;;;4.07;;
67867;SDS011;54672;46.096;14.470;2022-09-09T12:49:26;5.88;;;3.38;;
67867;SDS011;54672;46.096;14.470;2022-09-09T12:52:01;4.93;;;3.42;;
67867;SDS011;54672;46.096;14.470;2022-09-09T12:54:30;4.88;;;3.40;;
67867;SDS011;54672;46.096;14.470;2022-09-09T12:56:56;7.18;;;3.40;;
67867;SDS011;54672;46.096;14.470;2022-09-09T12:59:26;6.88;;;3.55;;
67867;SDS011;54672;46.096;14.470;2022-09-09T13:02:00;5.07;;;3.90;;
67867;SDS011;54672;46.096;14.470;2022-09-09T13:04:25;5.72;;;3.35;;
67867;SDS011;54672;46.096;14.470;2022-09-09T13:06:51;5.88;;;3.65;;
67867;SDS011;54672;46.096;14.470;2022-09-09T13:09:20;6.10;;;3.63;;
67867;SDS011;54672;46.096;14.470;2022-09-09T13:11:50;4.95;;;3.50;;
67867;SDS011;54672;46.096;14.470;2022-09-09T13:14:31;6.57;;;3.47;;
67867;SDS011;54672;46.096;14.470;2022-09-09T13:17:00;5.28;;;3.40;;
67867;SDS011;54672;46.096;14.470;2022-09-09T13:19:36;4.03;;;3.28;;
67867;SDS011;54672;46.096;14.470;2022-09-09T13:25:02;4.50;;;3.50;;
67867;SDS011;54672;46.096;14.470;2022-09-09T13:27:32;5.20;;;3.25;;
67867;SDS011;54672;46.096;14.470;2022-09-09T13:29:59;6.82;;;3.72;;
67867;SDS011;54672;46.096;14.470;2022-09-09T13:32:26;5.18;;;3.50;;
67867;SDS011;54672;46.096;14.470;2022-09-09T13:34:56;4.18;;;3.17;;
67867;SDS011;54672;46.096;14.470;2022-09-09T13:37:24;6.43;;;2.97;;
67867;SDS011;54672;46.096;14.470;2022-09-09T13:39:55;5.63;;;3.25;;
67867;SDS011;54672;46.096;14.470;2022-09-09T13:42:28;9.23;;;7.53;;
67867;SDS011;54672;46.096;14.470;2022-09-09T13:44:56;5.28;;;2.90;;
67867;SDS011;54672;46.096;14.470;2022-09-09T13:47:27;3.55;;;2.70;;
67867;SDS011;54672;46.096;14.470;2022-09-09T13:49:56;4.75;;;2.90;;
67867;SDS011;54672;46.096;14.470;2022-09-09T13:52:21;50.72;;;5.75;;
67867;SDS011;54672;46.096;14.470;2022-09-09T13:54:48;4.80;;;2.13;;
67867;SDS011;54672;46.096;14.470;2022-09-09T13:57:24;4.35;;;2.20;;
67867;SDS011;54672;46.096;14.470;2022-09-09T13:59:51;2.75;;;1.95;;
67867;SDS011;54672;46.096;14.470;2022-09-09T14:02:17;3.55;;;2.08;;
67867;SDS011;54672;46.096;14.470;2022-09-09T14:04:43;5.80;;;2.35;;
67867;SDS011;54672;46.096;14.470;2022-09-09T14:07:13;3.22;;;2.10;;
67867;SDS011;54672;46.096;14.470;2022-09-09T14:09:41;3.30;;;2.40;;
67867;SDS011;54672;46.096;14.470;2022-09-09T14:12:11;3.47;;;2.40;;
67867;SDS011;54672;46.096;14.470;2022-09-09T14:14:37;3.40;;;2.30;;
67867;SDS011;54672;46.096;14.470;2022-09-09T14:17:03;4.82;;;2.50;;
67867;SDS011;54672;46.096;14.470;2022-09-09T14:19:29;3.72;;;1.70;;
67867;SDS011;54672;46.096;14.470;2022-09-09T14:21:55;3.15;;;2.38;;
67867;SDS011;54672;46.096;14.470;2022-09-09T14:24:21;4.72;;;3.00;;
67867;SDS011;54672;46.096;14.470;2022-09-09T14:26:47;3.45;;;2.17;;
67867;SDS011;54672;46.096;14.470;2022-09-09T14:29:12;6.50;;;1.38;;
67867;SDS011;54672;46.096;14.470;2022-09-09T14:31:38;3.88;;;1.95;;
67867;SDS011;54672;46.096;14.470;2022-09-09T14:34:03;6.13;;;2.47;;
67867;SDS011;54672;46.096;14.470;2022-09-09T14:36:29;2.97;;;2.00;;
67867;SDS011;54672;46.096;14.470;2022-09-09T14:38:55;3.72;;;1.80;;
67867;SDS011;54672;46.096;14.470;2022-09-09T14:41:20;6.63;;;2.10;;
67867;SDS011;54672;46.096;14.470;2022-09-09T14:43:47;3.50;;;1.70;;
67867;SDS011;54672;46.096;14.470;2022-09-09T14:46:14;2.38;;;1.60;;
67867;SDS011;54672;46.096;14.470;2022-09-09T14:48:41;2.53;;;1.30;;
67867;SDS011;54672;46.096;14.470;2022-09-09T14:51:14;2.75;;;1.30;;
67867;SDS011;54672;46.096;14.470;2022-09-09T14:53:41;2.30;;;1.40;;
67867;SDS011;54672;46.096;14.470;2022-09-09T14:56:12;3.72;;;1.35;;
67867;SDS011;54672;46.096;14.470;2022-09-09T14:58:39;1.98;;;1.58;;
67867;SDS011;54672;46.096;14.470;2022-09-09T15:01:07;3.33;;;1.88;;
67867;SDS011;54672;46.096;14.470;2022-09-09T15:03:37;4.43;;;1.70;;
67867;SDS011;54672;46.096;14.470;2022-09-09T15:08:33;3.22;;;2.10;;
67867;SDS011;54672;46.096;14.470;2022-09-09T15:11:00;2.35;;;1.52;;
67867;SDS011;54672;46.096;14.470;2022-09-09T15:13:26;2.97;;;1.52;;
67867;SDS011;54672;46.096;14.470;2022-09-09T15:15:52;3.05;;;1.98;;
67867;SDS011;54672;46.096;14.470;2022-09-09T15:18:19;3.00;;;1.92;;
67867;SDS011;54672;46.096;14.470;2022-09-09T15:20:44;3.38;;;2.10;;
67867;SDS011;54672;46.096;14.470;2022-09-09T15:23:11;6.05;;;2.90;;
67867;SDS011;54672;46.096;14.470;2022-09-09T15:25:36;3.47;;;1.95;;
67867;SDS011;54672;46.096;14.470;2022-09-09T15:28:02;2.75;;;1.70;;
67867;SDS011;54672;46.096;14.470;2022-09-09T15:30:27;4.65;;;2.50;;
67867;SDS011;54672;46.096;14.470;2022-09-09T15:32:52;3.97;;;2.25;;
67867;SDS011;54672;46.096;14.470;2022-09-09T15:35:18;4.72;;;2.25;;
67867;SDS011;54672;46.096;14.470;2022-09-09T15:37:44;3.85;;;2.50;;
67867;SDS011;54672;46.096;14.470;2022-09-09T15:40:10;5.32;;;2.80;;
67867;SDS011;54672;46.096;14.470;2022-09-09T15:42:35;6.65;;;2.22;;
67867;SDS011;54672;46.096;14.470;2022-09-09T15:45:01;5.53;;;2.63;;
67867;SDS011;54672;46.096;14.470;2022-09-09T15:47:26;6.85;;;2.60;;
67867;SDS011;54672;46.096;14.470;2022-09-09T15:49:52;4.13;;;2.53;;
67867;SDS011;54672;46.096;14.470;2022-09-09T15:52:18;3.88;;;2.47;;
67867;SDS011;54672;46.096;14.470;2022-09-09T15:54:43;3.35;;;2.25;;
67867;SDS011;54672;46.096;14.470;2022-09-09T15:57:10;3.17;;;1.90;;
67867;SDS011;54672;46.096;14.470;2022-09-09T15:59:37;4.53;;;1.98;;
67867;SDS011;54672;46.096;14.470;2022-09-09T16:02:03;5.95;;;1.98;;
67867;SDS011;54672;46.096;14.470;2022-09-09T16:04:30;4.45;;;2.50;;
67867;SDS011;54672;46.096;14.470;2022-09-09T16:06:57;4.28;;;2.30;;
67867;SDS011;54672;46.096;14.470;2022-09-09T16:09:25;3.45;;;2.08;;
67867;SDS011;54672;46.096;14.470;2022-09-09T16:11:51;3.90;;;2.42;;
67867;SDS011;54672;46.096;14.470;2022-09-09T16:14:18;53.15;;;14.38;;
67867;SDS011;54672;46.096;14.470;2022-09-09T16:16:43;6.00;;;2.42;;
67867;SDS011;54672;46.096;14.470;2022-09-09T16:19:10;3.08;;;2.00;;
67867;SDS011;54672;46.096;14.470;2022-09-09T16:21:41;4.68;;;2.55;;
67867;SDS011;54672;46.096;14.470;2022-09-09T16:24:09;5.22;;;1.88;;
67867;SDS011;54672;46.096;14.470;2022-09-09T16:26:37;4.13;;;2.55;;
67867;SDS011;54672;46.096;14.470;2022-09-09T16:29:04;3.85;;;2.33;;
67867;SDS011;54672;46.096;14.470;2022-09-09T16:31:30;3.92;;;2.25;;
67867;SDS011;54672;46.096;14.470;2022-09-09T16:33:57;13.90;;;12.80;;
67867;SDS011;54672;46.096;14.470;2022-09-09T16:36:23;3.58;;;2.20;;
67867;SDS011;54672;46.096;14.470;2022-09-09T16:38:53;3.95;;;2.42;;
67867;SDS011;54672;46.096;14.470;2022-09-09T16:41:20;6.47;;;2.90;;
67867;SDS011;54672;46.096;14.470;2022-09-09T16:43:45;7.13;;;2.30;;
67867;SDS011;54672;46.096;14.470;2022-09-09T16:46:15;6.40;;;2.90;;
67867;SDS011;54672;46.096;14.470;2022-09-09T16:48:43;4.57;;;2.63;;
67867;SDS011;54672;46.096;14.470;2022-09-09T16:51:12;4.28;;;2.78;;
67867;SDS011;54672;46.096;14.470;2022-09-09T16:53:40;5.18;;;3.13;;
67867;SDS011;54672;46.096;14.470;2022-09-09T16:56:10;6.53;;;2.85;;
67867;SDS011;54672;46.096;14.470;2022-09-09T16:58:40;8.93;;;3.65;;
67867;SDS011;54672;46.096;14.470;2022-09-09T17:01:08;7.57;;;3.80;;